Snow/Ice From: 24-10-2018 05:00 Until: 09:00 warning for: Snow/Ice Level: Yellow info button
suomi:
Liikennesää: Ajokeli muuttuu huonoksi aamulla tienpintojen jäätymisen vuoksi.

svenska:
Trafikvädret: Väglaget blir dåligt på morgonen p.g.a. tillfrysning av vägytor.

english:
Traffic weather warning: Bad road conditions are expected in the morning because of ice-covered roads. 


Thunder radar more information blitzortung!


Löydät sääaseman tiedot myös:

European Weather Network

Finland Weather Exchange

Weather Underground

AWEKAS



Weather Underground säähistoriasivu

Päivittäin yhteenveto Maaliskuu 27, 2017 Yksiköt:  Englantilaiset    Metriset   Molemmat
« Edellinen Päivä
Seuraava Päivä »
Päivittäin Viikoittain Kuukausittain Vuosittain Mukautettu
  Korkea: Matala: Keskiarvo:
Lämpötila: TemperatureF °F 33.4 °F 40 °F
Kastepiste: DewpointF °F 26.6 °F 31.3 °F
Kosteus: Humidity % 51 % 70 %
Tuulen nopeus: WindSpeedMPH mph 0.0 mph 3.9 mph
Tuulenpuuska: WindSpeedGustMPH mph - -
Tuuli:- - West
Ilmanpaine: PressureIn in 29.45 in -
Sade: 0.00 in    
Historical Graphs
 
 
Taulukkotiedot Maaliskuu 27, 2017
Aika Lämpötila Kastepiste Ilmanpaine Tuuli Tuulen nopeus Tuulenpuuska Kosteus Sademäärä (tunneittain)
TemperatureF °F DewpointF °F PressureIn in Calm     Humidity % HourlyPrecipIn in
00:00 39.7 °F 27.5 °F 29.78 in NW 6.0 mph 14.0 mph 61 % 0.00 in
00:15 39.6 °F 27.5 °F 29.78 in NW 6.0 mph 19.0 mph 62 % 0.00 in
00:30 39.2 °F 27.7 °F 29.79 in NW 5.0 mph 12.0 mph 63 % 0.00 in
00:45 38.8 °F 27.3 °F 29.80 in NW 4.0 mph 10.0 mph 63 % 0.00 in
01:00 38.7 °F 27.5 °F 29.80 in NW 5.0 mph 13.0 mph 64 % 0.00 in
01:15 38.3 °F 27.5 °F 29.81 in WNW 5.0 mph 14.0 mph 65 % 0.00 in
01:30 38.1 °F 27.5 °F 29.81 in NW 5.0 mph 9.0 mph 65 % 0.00 in
01:45 37.8 °F 27.5 °F 29.81 in NW 4.0 mph 10.0 mph 66 % 0.00 in
02:00 37.6 °F 27.7 °F 29.81 in NW 4.0 mph 9.0 mph 67 % 0.00 in
02:15 37.2 °F 27.3 °F 29.82 in NW 4.0 mph 11.0 mph 67 % 0.00 in
02:30 36.9 °F 27.1 °F 29.82 in WNW 3.0 mph 10.0 mph 68 % 0.00 in
02:45 36.5 °F 27.7 °F 29.82 in WNW 4.0 mph 13.0 mph 70 % 0.00 in
03:00 36.5 °F 27.7 °F 29.82 in NW 5.0 mph 13.0 mph 70 % 0.00 in
03:15 36.5 °F 27.7 °F 29.82 in NW 5.0 mph 14.0 mph 70 % 0.00 in
03:30 36.7 °F 27.9 °F 29.83 in NW 5.0 mph 12.0 mph 70 % 0.00 in
03:45 36.7 °F 27.7 °F 29.83 in NW 6.0 mph 11.0 mph 70 % 0.00 in
04:00 36.3 °F 27.9 °F 29.83 in NW 4.0 mph 11.0 mph 71 % 0.00 in
04:15 36.1 °F 27.7 °F 29.83 in NW 4.0 mph 10.0 mph 71 % 0.00 in
04:30 36.1 °F 27.9 °F 29.83 in NW 4.0 mph 11.0 mph 72 % 0.00 in
04:45 36.0 °F 27.9 °F 29.83 in NW 3.0 mph 6.0 mph 72 % 0.00 in
05:00 36.1 °F 28.2 °F 29.84 in WNW 3.0 mph 10.0 mph 73 % 0.00 in
05:15 36.1 °F 28.2 °F 29.83 in NW 2.0 mph 8.0 mph 73 % 0.00 in
05:30 36.0 °F 28.4 °F 29.83 in West 2.0 mph 8.0 mph 74 % 0.00 in
05:45 35.4 °F 28.4 °F 29.82 in WNW 2.0 mph 7.0 mph 75 % 0.00 in
06:00 35.4 °F 28.8 °F 29.83 in West 2.0 mph 9.0 mph 76 % 0.00 in
06:15 36.0 °F 29.1 °F 29.82 in West 2.0 mph 6.0 mph 76 % 0.00 in
06:30 36.1 °F 29.1 °F 29.82 in WNW 2.0 mph 9.0 mph 75 % 0.00 in
06:45 36.3 °F 29.5 °F 29.81 in West 2.0 mph 5.0 mph 76 % 0.00 in
07:00 36.3 °F 29.5 °F 29.81 in WNW 2.0 mph 8.0 mph 76 % 0.00 in
07:15 36.3 °F 29.8 °F 29.81 in West 2.0 mph 8.0 mph 77 % 0.00 in
07:30 36.5 °F 30.0 °F 29.81 in WNW 3.0 mph 9.0 mph 77 % 0.00 in
07:45 36.3 °F 29.8 °F 29.79 in West 2.0 mph 9.0 mph 77 % 0.00 in
08:00 36.5 °F 30.4 °F 29.79 in West 1.0 mph 7.0 mph 78 % 0.00 in
08:15 36.7 °F 30.4 °F 29.78 in West 2.0 mph 5.0 mph 78 % 0.00 in
08:30 37.0 °F 30.4 °F 29.76 in WSW 1.0 mph 6.0 mph 77 % 0.00 in
08:45 37.6 °F 31.1 °F 29.78 in West 2.0 mph 7.0 mph 77 % 0.00 in
09:00 37.9 °F 31.1 °F 29.77 in WSW 2.0 mph 8.0 mph 76 % 0.00 in
09:15 38.3 °F 31.6 °F 29.76 in SW 1.0 mph 5.0 mph 77 % 0.00 in
09:30 38.8 °F 31.8 °F 29.74 in WSW 2.0 mph 6.0 mph 76 % 0.00 in
09:45 39.0 °F 32.2 °F 29.74 in WSW 3.0 mph 10.0 mph 76 % 0.00 in
10:00 39.9 °F 32.4 °F 29.73 in WSW 3.0 mph 12.0 mph 74 % 0.00 in
10:15 40.6 °F 32.5 °F 29.72 in West 3.0 mph 9.0 mph 73 % 0.00 in
10:30 40.8 °F 32.5 °F 29.72 in West 4.0 mph 11.0 mph 72 % 0.00 in
10:45 41.4 °F 33.6 °F 29.70 in West 3.0 mph 9.0 mph 74 % 0.00 in
11:00 41.2 °F 33.8 °F 29.69 in West 3.0 mph 7.0 mph 75 % 0.00 in
11:15 40.6 °F 34.0 °F 29.68 in SSW 4.0 mph 11.0 mph 77 % 0.00 in
11:30 39.9 °F 34.9 °F 29.65 in SSW 4.0 mph 11.0 mph 82 % 0.00 in
11:45 39.9 °F 35.2 °F 29.63 in SSW 5.0 mph 13.0 mph 83 % 0.00 in
12:00 40.1 °F 35.6 °F 29.61 in SSW 4.0 mph 9.0 mph 84 % 0.00 in
12:15 41.0 °F 36.9 °F 29.59 in SSW 5.0 mph 14.0 mph 85 % 0.00 in
12:30 42.3 °F 37.6 °F 29.57 in SSW 7.0 mph 14.0 mph 83 % 0.00 in
12:45 43.5 °F 38.1 °F 29.55 in SW 6.0 mph 16.0 mph 81 % 0.00 in
13:00 44.4 °F 39.0 °F 29.54 in SW 6.0 mph 12.0 mph 81 % 0.00 in
13:15 44.2 °F 39.0 °F 29.53 in SW 5.0 mph 14.0 mph 82 % 0.00 in
13:30 44.6 °F 39.2 °F 29.52 in SW 5.0 mph 15.0 mph 81 % 0.00 in
13:45 46.4 °F 40.6 °F 29.51 in SW 6.0 mph 17.0 mph 80 % 0.00 in
14:00 47.8 °F 41.5 °F 29.50 in SW 6.0 mph 15.0 mph 79 % 0.00 in
14:15 48.9 °F 42.1 °F 29.50 in WSW 4.0 mph 14.0 mph 77 % 0.00 in
14:30 50.2 °F 41.9 °F 29.50 in WSW 6.0 mph 17.0 mph 73 % 0.00 in
14:45 50.9 °F 41.9 °F 29.49 in West 7.0 mph 16.0 mph 71 % 0.00 in
15:00 51.1 °F 41.9 °F 29.48 in WSW 7.0 mph 18.0 mph 71 % 0.00 in
15:15 51.1 °F 41.4 °F 29.47 in West 6.0 mph 21.0 mph 69 % 0.00 in
15:30 51.6 °F 40.6 °F 29.47 in WSW 6.0 mph 16.0 mph 66 % 0.00 in
15:45 50.5 °F 39.7 °F 29.46 in West 5.0 mph 14.0 mph 66 % 0.00 in
16:00 50.0 °F 38.7 °F 29.46 in West 5.0 mph 14.0 mph 65 % 0.00 in
16:15 50.4 °F 38.1 °F 29.46 in West 5.0 mph 16.0 mph 63 % 0.00 in
16:30 50.2 °F 37.2 °F 29.45 in West 6.0 mph 18.0 mph 61 % 0.00 in
16:45 50.4 °F 35.8 °F 29.45 in WNW 7.0 mph 18.0 mph 57 % 0.00 in
17:00 49.6 °F 35.1 °F 29.46 in WNW 9.0 mph 23.0 mph 57 % 0.00 in
17:15 48.6 °F 35.4 °F 29.48 in NW 11.0 mph 28.0 mph 60 % 0.00 in
17:30 48.0 °F 34.9 °F 29.48 in NW 9.0 mph 22.0 mph 60 % 0.00 in
17:45 47.5 °F 31.6 °F 29.50 in NW 11.0 mph 24.0 mph 54 % 0.00 in
18:00 46.6 °F 32.0 °F 29.51 in NW 9.0 mph 35.0 mph 57 % 0.00 in
18:15 45.7 °F 31.3 °F 29.52 in NW 9.0 mph 20.0 mph 57 % 0.00 in
18:30 45.1 °F 31.3 °F 29.53 in NW 8.0 mph 21.0 mph 58 % 0.00 in
18:45 44.8 °F 28.8 °F 29.55 in NNW 7.0 mph 17.0 mph 53 % 0.00 in
19:00 44.4 °F 27.5 °F 29.55 in NW 9.0 mph 28.0 mph 51 % 0.00 in
19:15 43.7 °F 26.8 °F 29.56 in NNW 6.0 mph 14.0 mph 51 % 0.00 in
19:30 42.6 °F 28.0 °F 29.58 in North 3.0 mph 8.0 mph 56 % 0.00 in
19:45 41.2 °F 29.5 °F 29.60 in North 2.0 mph 6.0 mph 63 % 0.00 in
20:00 39.9 °F 29.5 °F 29.60 in NNW 3.0 mph 9.0 mph 66 % 0.00 in
20:15 39.0 °F 29.8 °F 29.62 in NNW 1.0 mph 7.0 mph 69 % 0.00 in
20:30 38.5 °F 29.8 °F 29.63 in NNW 1.0 mph 6.0 mph 71 % 0.00 in
20:45 37.8 °F 29.7 °F 29.64 in NW 1.0 mph 6.0 mph 72 % 0.00 in
21:00 37.0 °F 29.5 °F 29.64 in NW 1.0 mph 5.0 mph 74 % 0.00 in
21:15 36.5 °F 29.3 °F 29.65 in Calm     75 % 0.00 in
21:30 35.8 °F 28.9 °F 29.65 in Calm     76 % 0.00 in
21:45 35.1 °F 28.8 °F 29.66 in Calm     78 % 0.00 in
22:00 34.2 °F 28.6 °F 29.66 in Calm     80 % 0.00 in
22:15 33.4 °F 28.6 °F 29.66 in Calm   4.0 mph 82 % 0.00 in
22:30 34.3 °F 28.9 °F 29.67 in NNW 1.0 mph 4.0 mph 80 % 0.00 in
22:45 34.9 °F 28.8 °F 29.68 in Calm   3.0 mph 78 % 0.00 in
23:00 34.9 °F 28.4 °F 29.68 in Calm   2.0 mph 77 % 0.00 in
23:15 34.7 °F 27.9 °F 29.69 in NW 1.0 mph 9.0 mph 76 % 0.00 in
23:30 35.4 °F 27.0 °F 29.69 in NW 2.0 mph 9.0 mph 71 % 0.00 in
23:45 35.4 °F 26.6 °F 29.69 in Calm   4.0 mph 70 % 0.00 in
Esan sääasema
Terveisin Weather Underground - 2.75 mb

Alkuperäinen skripti  Jim McMurry - jmcmurry@mwt.net Sovitettu myös templatelle  Wim van der Kuil - Leuven-Template.eu

Laitteet joita käytämme:

Sääasema
Davis VP2

Sääasemaohjelma
Cumulus

Sääaseman tietokone
Asus EeePC

Palveluntarjoaja
Suncomet

Davis VP2

Cumulus

Asus EeePC

Suncomet